createdAt,value
2022-12-09T00:01:14.159Z,12.50
2022-12-09T00:03:42.288Z,13.70
2022-12-09T00:06:11.883Z,13.73
2022-12-09T00:08:39.376Z,12.40
2022-12-09T00:11:07.907Z,13.68
2022-12-09T00:13:35.681Z,13.50
2022-12-09T00:16:12.749Z,11.82
2022-12-09T00:18:41.218Z,11.02
2022-12-09T00:21:18.610Z,13.23
2022-12-09T00:23:46.370Z,14.05
2022-12-09T00:26:14.496Z,11.93
2022-12-09T00:28:42.334Z,12.52
2022-12-09T00:31:13.743Z,14.05
2022-12-09T00:33:41.718Z,12.95
2022-12-09T00:36:14.627Z,13.88
2022-12-09T00:38:42.559Z,12.18
2022-12-09T00:41:10.927Z,12.95
2022-12-09T00:43:38.994Z,15.57
2022-12-09T00:46:06.580Z,12.45
2022-12-09T00:48:34.931Z,12.80
2022-12-09T00:51:02.768Z,12.27
2022-12-09T00:53:30.739Z,14.07
2022-12-09T00:55:59.161Z,12.85
2022-12-09T00:58:27.225Z,13.65
2022-12-09T01:00:54.775Z,12.40
2022-12-09T01:03:22.983Z,12.15
2022-12-09T01:05:50.549Z,11.65
2022-12-09T01:08:18.688Z,12.23
2022-12-09T01:10:47.006Z,13.82
2022-12-09T01:13:15.856Z,12.75
2022-12-09T01:15:43.810Z,12.82
2022-12-09T01:18:12.991Z,12.93
2022-12-09T01:20:41.001Z,12.85
2022-12-09T01:23:08.656Z,11.30
2022-12-09T01:25:38.396Z,14.82
2022-12-09T01:28:06.142Z,13.38
2022-12-09T01:30:33.811Z,13.38
2022-12-09T01:33:01.440Z,14.07
2022-12-09T01:35:29.551Z,12.27
2022-12-09T01:37:56.988Z,13.68
2022-12-09T01:40:24.750Z,13.40
2022-12-09T01:42:52.284Z,12.00
2022-12-09T01:45:19.877Z,12.38
2022-12-09T01:47:49.864Z,12.23
2022-12-09T01:50:18.300Z,12.57
2022-12-09T01:52:48.180Z,12.27
2022-12-09T01:55:16.281Z,15.40
2022-12-09T01:57:46.216Z,13.60
2022-12-09T02:00:14.501Z,13.10
2022-12-09T02:02:47.956Z,12.10
2022-12-09T02:05:22.101Z,13.73
2022-12-09T02:07:55.236Z,13.18
2022-12-09T02:10:23.191Z,13.60
2022-12-09T02:13:10.059Z,12.43
2022-12-09T02:15:53.691Z,14.02
2022-12-09T02:18:38.638Z,12.93
2022-12-09T02:21:18.555Z,14.63
2022-12-09T02:23:53.573Z,12.68
2022-12-09T02:26:44.015Z,15.02
2022-12-09T02:29:31.264Z,11.68
2022-12-09T02:32:11.730Z,14.05
2022-12-09T02:34:49.300Z,12.15
2022-12-09T02:37:54.895Z,13.80
2022-12-09T02:40:34.043Z,13.25
2022-12-09T02:43:05.923Z,13.55
2022-12-09T02:45:37.074Z,13.85
2022-12-09T02:48:07.043Z,13.85
2022-12-09T02:50:38.609Z,14.25
2022-12-09T02:53:09.888Z,14.15
2022-12-09T02:55:42.161Z,15.68
2022-12-09T02:58:10.489Z,15.98
2022-12-09T03:00:41.204Z,14.43
2022-12-09T03:03:15.605Z,14.75
2022-12-09T03:05:58.343Z,20.50
2022-12-09T03:09:01.743Z,14.57
2022-12-09T03:11:32.257Z,15.38
2022-12-09T03:14:27.905Z,14.00
2022-12-09T03:17:07.521Z,14.82
2022-12-09T03:19:44.159Z,14.50
2022-12-09T03:22:15.985Z,13.85
2022-12-09T03:24:59.979Z,13.30
2022-12-09T03:27:34.801Z,12.15
2022-12-09T03:30:05.894Z,14.82
2022-12-09T03:32:37.013Z,13.82
2022-12-09T03:35:10.473Z,15.48
2022-12-09T03:37:40.336Z,13.73
2022-12-09T03:40:14.125Z,15.93
2022-12-09T03:42:53.475Z,13.52
2022-12-09T03:45:23.628Z,13.18
2022-12-09T03:47:52.139Z,13.93
2022-12-09T03:50:23.430Z,14.68
2022-12-09T03:53:16.128Z,15.02
2022-12-09T03:55:50.220Z,13.15
2022-12-09T03:58:17.978Z,14.18
2022-12-09T04:00:47.237Z,13.48
2022-12-09T04:03:15.620Z,14.02
2022-12-09T04:05:43.347Z,14.40
2022-12-09T04:08:11.427Z,14.27
2022-12-09T04:10:39.387Z,14.77
2022-12-09T04:13:06.839Z,13.93
2022-12-09T04:15:34.676Z,14.85
2022-12-09T04:18:02.439Z,13.25
2022-12-09T04:20:30.273Z,15.30
2022-12-09T04:22:57.919Z,15.18
2022-12-09T04:25:25.585Z,14.10
2022-12-09T04:27:53.562Z,14.98
2022-12-09T04:30:21.939Z,16.27
2022-12-09T04:32:49.495Z,14.02
2022-12-09T04:35:17.050Z,13.15
2022-12-09T04:37:44.609Z,13.38
2022-12-09T04:40:18.220Z,13.15
2022-12-09T04:42:48.856Z,14.52
2022-12-09T04:45:16.575Z,15.45
2022-12-09T04:47:44.109Z,16.85
2022-12-09T04:50:12.509Z,15.23
2022-12-09T04:52:41.009Z,13.35
2022-12-09T04:55:09.941Z,12.85
2022-12-09T04:57:37.654Z,12.88
2022-12-09T05:00:07.445Z,12.68
2022-12-09T05:02:35.658Z,13.55
2022-12-09T05:05:03.969Z,13.10
2022-12-09T05:07:32.188Z,17.02
2022-12-09T05:09:59.812Z,14.52
2022-12-09T05:12:28.057Z,13.88
2022-12-09T05:14:55.779Z,13.68
2022-12-09T05:17:23.414Z,14.65
2022-12-09T05:19:52.014Z,14.57
2022-12-09T05:22:20.059Z,13.55
2022-12-09T05:24:47.703Z,13.30
2022-12-09T05:27:16.696Z,14.80
2022-12-09T05:29:44.322Z,14.30
2022-12-09T05:32:12.483Z,15.23
2022-12-09T05:34:40.355Z,15.50
2022-12-09T05:37:12.907Z,14.68
2022-12-09T05:39:41.362Z,14.95
2022-12-09T05:42:09.450Z,14.35
2022-12-09T05:44:37.398Z,15.57
2022-12-09T05:47:05.535Z,13.77
2022-12-09T05:49:34.755Z,14.98
2022-12-09T05:52:03.386Z,14.82
2022-12-09T05:54:31.011Z,15.88
2022-12-09T05:57:01.269Z,15.10
2022-12-09T05:59:29.332Z,15.15
2022-12-09T06:01:57.397Z,17.42
2022-12-09T06:04:25.380Z,16.15
2022-12-09T06:06:53.410Z,15.25
2022-12-09T06:09:21.851Z,14.52
2022-12-09T06:11:49.702Z,15.05
2022-12-09T06:14:17.309Z,17.30
2022-12-09T06:16:44.908Z,22.42
2022-12-09T06:19:13.074Z,24.08
2022-12-09T06:21:41.647Z,27.15
2022-12-09T06:24:09.378Z,27.90
2022-12-09T06:26:36.924Z,30.92
2022-12-09T06:29:04.428Z,31.63
2022-12-09T06:31:32.563Z,33.50
2022-12-09T06:34:01.177Z,31.92
2022-12-09T06:36:31.301Z,30.30
2022-12-09T06:39:05.893Z,33.53
2022-12-09T06:41:37.407Z,32.78
2022-12-09T06:44:05.452Z,36.47
2022-12-09T06:46:33.231Z,36.63
2022-12-09T06:49:01.191Z,37.55
2022-12-09T06:51:29.518Z,35.15
2022-12-09T06:53:57.385Z,37.85
2022-12-09T06:56:25.520Z,35.58
2022-12-09T06:58:53.536Z,34.75
2022-12-09T07:01:25.482Z,37.20
2022-12-09T07:03:56.175Z,31.98
2022-12-09T07:06:42.507Z,32.90
2022-12-09T07:09:13.114Z,35.05
2022-12-09T07:11:42.590Z,32.90
2022-12-09T07:14:10.896Z,36.10
2022-12-09T07:16:39.400Z,34.20
2022-12-09T07:19:07.914Z,34.53
2022-12-09T07:21:36.635Z,32.72
2022-12-09T07:24:04.694Z,31.83
2022-12-09T07:26:33.769Z,31.08
2022-12-09T07:29:03.680Z,31.42
2022-12-09T07:31:31.879Z,32.83
2022-12-09T07:34:01.054Z,34.67
2022-12-09T07:36:31.595Z,31.13
2022-12-09T07:39:01.119Z,35.67
2022-12-09T07:41:29.004Z,29.65
2022-12-09T07:43:57.235Z,32.90
2022-12-09T07:46:29.150Z,31.38
2022-12-09T07:48:58.381Z,31.73
2022-12-09T07:51:26.763Z,30.65
2022-12-09T07:53:54.879Z,28.75
2022-12-09T07:56:23.422Z,28.23
2022-12-09T07:58:53.461Z,28.65
2022-12-09T08:01:25.998Z,28.38
2022-12-09T08:03:54.712Z,29.98
2022-12-09T08:06:25.980Z,27.25
2022-12-09T08:08:54.779Z,27.83
2022-12-09T08:11:26.459Z,28.58
2022-12-09T08:13:57.586Z,29.75
2022-12-09T08:16:26.106Z,28.15
2022-12-09T08:18:55.509Z,28.02
2022-12-09T08:21:28.868Z,28.80
2022-12-09T08:23:59.774Z,27.20
2022-12-09T08:26:31.456Z,26.95
2022-12-09T08:28:59.808Z,26.27
2022-12-09T08:31:28.679Z,25.10
2022-12-09T08:33:56.842Z,26.65
2022-12-09T08:36:27.515Z,26.27
2022-12-09T08:38:56.207Z,26.45
2022-12-09T08:41:35.796Z,25.42
2022-12-09T08:44:20.072Z,25.98
2022-12-09T08:46:50.371Z,24.90
2022-12-09T08:49:22.061Z,25.88
2022-12-09T08:51:52.037Z,23.77
2022-12-09T08:54:19.901Z,24.02
2022-12-09T08:56:49.325Z,25.52
2022-12-09T08:59:18.630Z,23.83
2022-12-09T09:01:46.610Z,23.40
2022-12-09T09:04:18.230Z,23.88
2022-12-09T09:06:49.701Z,25.13
2022-12-09T09:09:19.225Z,22.75
2022-12-09T09:11:46.929Z,22.52
2022-12-09T09:14:15.120Z,23.02
2022-12-09T09:16:45.336Z,23.83
2022-12-09T09:19:16.667Z,23.65
2022-12-09T09:21:44.468Z,21.33
2022-12-09T09:24:14.938Z,22.42
2022-12-09T09:26:44.196Z,21.35
2022-12-09T09:29:12.898Z,21.92
2022-12-09T09:31:41.150Z,22.90
2022-12-09T09:34:09.374Z,21.08
2022-12-09T09:36:37.035Z,23.25
2022-12-09T09:39:05.230Z,21.00
2022-12-09T09:41:53.614Z,21.80
2022-12-09T09:44:33.176Z,20.55
2022-12-09T09:47:03.740Z,20.85
2022-12-09T09:49:46.196Z,20.15
2022-12-09T09:52:20.508Z,21.42
2022-12-09T09:54:48.657Z,22.08
2022-12-09T09:57:40.448Z,20.27
2022-12-09T10:00:30.085Z,20.55
2022-12-09T10:03:03.043Z,22.13
2022-12-09T10:05:43.493Z,18.75
2022-12-09T10:08:30.188Z,22.08
2022-12-09T10:11:10.039Z,22.23
2022-12-09T10:14:06.100Z,20.73
2022-12-09T10:16:33.828Z,18.70
2022-12-09T10:19:07.685Z,19.20
2022-12-09T10:21:42.355Z,19.48
2022-12-09T10:24:46.192Z,19.45
2022-12-09T10:27:26.479Z,17.70
2022-12-09T10:30:00.042Z,18.88
2022-12-09T10:32:34.835Z,18.20
2022-12-09T10:35:15.373Z,19.85
2022-12-09T10:37:44.539Z,19.73
2022-12-09T10:40:12.431Z,17.33
2022-12-09T10:43:05.685Z,17.58
2022-12-09T10:46:08.013Z,18.73
2022-12-09T10:48:43.235Z,17.90
2022-12-09T10:51:34.930Z,17.25
2022-12-09T10:54:15.340Z,16.83
2022-12-09T10:57:11.695Z,17.48
2022-12-09T10:59:41.661Z,18.08
2022-12-09T11:02:09.152Z,18.13
2022-12-09T11:04:40.649Z,17.83
2022-12-09T11:07:20.879Z,16.98
2022-12-09T11:09:52.244Z,17.15
2022-12-09T11:12:40.198Z,15.68
2022-12-09T11:15:51.386Z,15.93
2022-12-09T11:18:28.343Z,17.35
2022-12-09T11:21:02.260Z,16.67
2022-12-09T11:23:30.923Z,17.38
2022-12-09T11:26:05.943Z,16.45
2022-12-09T11:28:39.336Z,16.77
2022-12-09T11:31:30.283Z,15.75
2022-12-09T11:34:14.321Z,16.27
2022-12-09T11:36:53.946Z,15.48
2022-12-09T11:39:28.684Z,15.77
2022-12-09T11:42:19.044Z,17.52
2022-12-09T11:44:58.746Z,16.75
2022-12-09T11:47:50.449Z,16.58
2022-12-09T11:50:25.830Z,14.98
2022-12-09T11:53:11.950Z,16.67
2022-12-09T11:55:46.629Z,15.02
2022-12-09T11:58:18.742Z,15.90
2022-12-09T12:00:55.380Z,15.45
2022-12-09T12:03:30.111Z,14.98
2022-12-09T12:06:00.865Z,14.27
2022-12-09T12:08:46.445Z,16.20
2022-12-09T12:11:27.942Z,14.35
2022-12-09T12:14:03.974Z,14.27
2022-12-09T12:16:58.842Z,14.27
2022-12-09T12:19:35.445Z,13.73
2022-12-09T12:22:12.076Z,15.80
2022-12-09T12:25:09.882Z,14.30
2022-12-09T12:28:18.658Z,15.52
2022-12-09T12:30:54.839Z,14.10
2022-12-09T12:36:58.824Z,14.25
2022-12-09T12:39:48.450Z,13.40
2022-12-09T12:42:27.634Z,13.05
2022-12-09T12:45:39.751Z,14.73
2022-12-09T12:48:25.154Z,13.23
2022-12-09T12:51:04.269Z,15.30
2022-12-09T12:53:34.460Z,14.82
2022-12-09T12:56:27.892Z,13.13
2022-12-09T12:59:39.644Z,13.60
2022-12-09T13:02:52.701Z,13.65
2022-12-09T13:05:24.194Z,14.20
2022-12-09T13:07:57.704Z,12.85
2022-12-09T13:10:33.570Z,15.75
2022-12-09T13:13:02.973Z,13.07
2022-12-09T13:15:38.944Z,13.32
2022-12-09T13:18:28.929Z,14.50
2022-12-09T13:21:01.220Z,12.57
2022-12-09T13:23:41.034Z,12.57
2022-12-09T13:26:44.598Z,12.75
2022-12-09T13:29:39.755Z,12.20
2022-12-09T13:32:52.055Z,10.95
2022-12-09T13:35:30.596Z,12.25
2022-12-09T13:37:59.947Z,13.00
2022-12-09T13:40:37.702Z,13.43
2022-12-09T13:43:11.785Z,13.18
2022-12-09T13:45:45.304Z,12.40
2022-12-09T13:48:17.103Z,11.45
2022-12-09T13:50:57.582Z,12.95
2022-12-09T13:53:30.999Z,13.57
2022-12-09T13:56:16.761Z,12.98
2022-12-09T13:59:02.411Z,15.00
2022-12-09T14:01:48.302Z,14.95
2022-12-09T14:04:19.277Z,12.98
2022-12-09T14:06:46.652Z,14.55
2022-12-09T14:09:27.187Z,15.38
2022-12-09T14:11:56.219Z,13.98
2022-12-09T14:14:23.668Z,15.95
2022-12-09T14:17:02.499Z,14.70
2022-12-09T14:20:00.693Z,12.77
2022-12-09T14:22:31.241Z,15.63
2022-12-09T14:25:19.257Z,11.50
2022-12-09T14:28:11.524Z,12.90
2022-12-09T14:30:51.572Z,13.48
2022-12-09T14:33:24.263Z,11.68
2022-12-09T14:35:57.806Z,13.13
2022-12-09T14:39:08.262Z,12.65
2022-12-09T14:42:04.301Z,12.07
2022-12-09T14:44:50.563Z,12.55
2022-12-09T14:47:24.732Z,11.32
2022-12-09T14:49:55.698Z,12.98
2022-12-09T14:52:31.626Z,14.25
2022-12-09T14:55:02.401Z,12.85
2022-12-09T14:57:38.325Z,15.90
2022-12-09T15:00:07.674Z,15.38
2022-12-09T15:02:35.547Z,12.50
2022-12-09T15:05:03.430Z,10.88
2022-12-09T15:07:33.308Z,13.00
2022-12-09T15:10:07.478Z,14.10
2022-12-09T15:12:41.255Z,13.13
2022-12-09T15:15:27.131Z,18.48
2022-12-09T15:18:12.701Z,13.43
2022-12-09T15:20:41.992Z,11.75
2022-12-09T15:23:32.211Z,12.32
2022-12-09T15:26:03.587Z,13.05
2022-12-09T15:28:33.273Z,12.43
2022-12-09T15:31:15.464Z,13.23
2022-12-09T15:33:51.058Z,14.25
2022-12-09T15:36:30.060Z,15.32
2022-12-09T15:39:05.790Z,11.10
2022-12-09T15:41:59.646Z,11.73
2022-12-09T15:44:32.203Z,12.77
2022-12-09T15:47:05.562Z,12.55
2022-12-09T15:49:45.198Z,12.40
2022-12-09T15:52:16.814Z,14.45
2022-12-09T15:54:45.471Z,12.70
2022-12-09T15:57:17.426Z,11.98
2022-12-09T15:59:55.851Z,14.38
2022-12-09T16:02:30.748Z,11.02
2022-12-09T16:05:02.284Z,11.43
2022-12-09T16:07:33.172Z,10.70
2022-12-09T16:10:13.337Z,11.43
2022-12-09T16:12:42.934Z,12.88
2022-12-09T16:15:13.332Z,11.18
2022-12-09T16:17:55.593Z,13.82
2022-12-09T16:20:45.685Z,10.60
2022-12-09T16:23:22.140Z,12.88
2022-12-09T16:25:50.155Z,10.70
2022-12-09T16:28:26.622Z,11.00
2022-12-09T16:31:04.555Z,11.45
2022-12-09T16:33:38.719Z,11.20
2022-12-09T16:36:07.452Z,11.10
2022-12-09T16:38:38.673Z,10.68
2022-12-09T16:41:08.134Z,14.70
2022-12-09T16:43:36.646Z,10.40
2022-12-09T16:46:13.418Z,10.45
2022-12-09T16:48:42.514Z,10.68
2022-12-09T16:51:13.049Z,10.77
2022-12-09T16:53:46.025Z,10.02
2022-12-09T16:56:20.773Z,10.82
2022-12-09T16:58:48.484Z,9.55
2022-12-09T17:01:18.513Z,10.65
2022-12-09T17:04:17.758Z,10.00
2022-12-09T17:06:45.606Z,10.95
2022-12-09T17:09:13.435Z,10.68
2022-12-09T17:11:47.008Z,10.50
2022-12-09T17:14:17.021Z,11.13
2022-12-09T17:16:45.049Z,10.93
2022-12-09T17:19:13.370Z,11.15
2022-12-09T17:21:40.958Z,11.45
2022-12-09T17:24:11.777Z,11.65
2022-12-09T17:26:39.333Z,9.50
2022-12-09T17:29:07.233Z,12.25
2022-12-09T17:31:34.858Z,11.65
2022-12-09T17:34:02.297Z,11.82
2022-12-09T17:36:29.765Z,10.70
2022-12-09T17:39:03.864Z,10.05
2022-12-09T17:41:31.566Z,10.98
2022-12-09T17:44:01.080Z,10.75
2022-12-09T17:46:28.678Z,10.65
2022-12-09T17:48:56.535Z,10.23
2022-12-09T17:51:23.981Z,9.88
2022-12-09T17:53:51.575Z,9.65
2022-12-09T17:56:21.301Z,9.95
2022-12-09T17:58:58.278Z,9.38
2022-12-09T18:06:31.181Z,11.05
2022-12-09T18:08:58.678Z,10.00
2022-12-09T18:11:26.457Z,9.52
2022-12-09T18:13:54.221Z,10.85
2022-12-09T18:16:21.757Z,10.98
2022-12-09T18:18:50.061Z,8.93
2022-12-09T18:21:19.767Z,9.82
2022-12-09T18:23:48.495Z,9.32
2022-12-09T18:26:19.237Z,11.30
2022-12-09T18:28:46.856Z,8.98
2022-12-09T18:31:19.128Z,9.82
2022-12-09T18:33:47.193Z,10.88
2022-12-09T18:36:16.909Z,8.90
2022-12-09T18:38:44.747Z,9.95
2022-12-09T18:41:14.853Z,9.23
2022-12-09T18:43:44.262Z,9.25
2022-12-09T18:46:14.911Z,9.57
2022-12-09T18:48:42.704Z,8.95
2022-12-09T18:51:18.730Z,9.45
2022-12-09T18:53:48.941Z,9.55
2022-12-09T18:56:17.564Z,9.38
2022-12-09T19:01:35.798Z,8.40
2022-12-09T19:04:04.568Z,8.38
2022-12-09T19:06:37.981Z,8.43
2022-12-09T19:09:13.940Z,9.90
2022-12-09T19:11:43.791Z,9.57
2022-12-09T19:14:12.535Z,9.13
2022-12-09T19:16:40.997Z,9.68
2022-12-09T19:19:12.750Z,9.27
2022-12-09T19:21:40.647Z,10.05
2022-12-09T19:24:14.052Z,10.38
2022-12-09T19:26:45.415Z,10.05
2022-12-09T19:29:14.774Z,9.88
2022-12-09T19:31:45.449Z,8.48
2022-12-09T19:34:19.014Z,8.77
2022-12-09T19:36:47.927Z,9.07
2022-12-09T19:39:17.297Z,8.18
2022-12-09T19:41:45.442Z,9.35
2022-12-09T19:44:25.850Z,9.82
2022-12-09T19:46:58.873Z,9.63
2022-12-09T19:49:26.700Z,8.20
2022-12-09T19:51:54.538Z,8.48
2022-12-09T19:54:28.097Z,8.23
2022-12-09T19:56:56.839Z,8.40
2022-12-09T19:59:24.506Z,9.13
2022-12-09T20:01:52.108Z,10.23
2022-12-09T20:07:09.488Z,10.10
2022-12-09T20:09:37.847Z,8.73
2022-12-09T20:12:05.689Z,8.57
2022-12-09T20:14:33.743Z,7.65
2022-12-09T20:17:01.461Z,8.55
2022-12-09T20:19:29.216Z,8.38
2022-12-09T20:21:57.953Z,8.77
2022-12-09T20:24:26.741Z,8.55
2022-12-09T20:26:56.190Z,8.55
2022-12-09T20:29:23.970Z,9.73
2022-12-09T20:31:53.387Z,8.27
2022-12-09T20:34:21.112Z,8.80
2022-12-09T20:36:48.697Z,7.88
2022-12-09T20:39:20.214Z,9.02
2022-12-09T20:41:48.787Z,9.60
2022-12-09T20:44:17.818Z,8.65
2022-12-09T20:46:47.807Z,9.00
2022-12-09T20:49:15.435Z,9.55
2022-12-09T20:51:47.089Z,9.10
2022-12-09T20:54:14.777Z,8.20
2022-12-09T20:56:42.445Z,7.93
2022-12-09T20:59:13.498Z,7.53
2022-12-09T21:01:41.460Z,8.40
2022-12-09T21:04:08.992Z,9.18
2022-12-09T21:06:38.952Z,7.57
2022-12-09T21:09:09.721Z,9.10
2022-12-09T21:11:38.021Z,7.20
2022-12-09T21:14:09.830Z,7.95
2022-12-09T21:16:40.074Z,8.00
2022-12-09T21:19:12.917Z,8.55
2022-12-09T21:21:42.757Z,8.35
2022-12-09T21:24:11.789Z,8.02
2022-12-09T21:26:40.088Z,7.75
2022-12-09T21:29:08.483Z,8.13
2022-12-09T21:31:37.950Z,8.98
2022-12-09T21:34:06.929Z,8.20
2022-12-09T21:36:37.105Z,8.07
2022-12-09T21:39:06.038Z,8.25
2022-12-09T21:41:35.338Z,8.57
2022-12-09T21:44:04.381Z,7.57
2022-12-09T21:46:34.583Z,7.63
2022-12-09T21:49:04.488Z,8.07
2022-12-09T21:51:33.864Z,10.75
2022-12-09T21:54:02.039Z,10.80
2022-12-09T21:56:31.383Z,8.40
2022-12-09T21:58:59.324Z,6.93
2022-12-09T22:01:32.955Z,6.55
2022-12-09T22:04:02.549Z,8.50
2022-12-09T22:06:30.725Z,7.57
2022-12-09T22:08:59.893Z,8.23
2022-12-09T22:11:32.019Z,7.70
2022-12-09T22:14:01.024Z,7.70
2022-12-09T22:16:34.434Z,7.57
2022-12-09T22:19:03.999Z,7.28
2022-12-09T22:21:33.622Z,7.38
2022-12-09T22:24:04.154Z,7.35
2022-12-09T22:26:32.619Z,7.55
2022-12-09T22:29:01.858Z,6.68
2022-12-09T22:31:32.352Z,7.07
2022-12-09T22:34:02.721Z,8.20
2022-12-09T22:36:30.296Z,6.53
2022-12-09T22:38:57.726Z,6.85
2022-12-09T22:41:27.940Z,6.93
2022-12-09T22:43:56.165Z,6.85
2022-12-09T22:46:29.671Z,6.53
2022-12-09T22:49:00.464Z,6.00
2022-12-09T22:51:30.648Z,9.07
2022-12-09T22:53:58.666Z,7.13
2022-12-09T22:56:26.444Z,6.53
2022-12-09T22:58:54.572Z,7.75
2022-12-09T23:01:27.787Z,6.25
2022-12-09T23:03:57.165Z,6.72
2022-12-09T23:06:26.900Z,7.30
2022-12-09T23:08:54.574Z,6.70
2022-12-09T23:11:25.292Z,7.60
2022-12-09T23:13:53.338Z,6.65
2022-12-09T23:16:25.155Z,6.35
2022-12-09T23:18:54.632Z,8.57
2022-12-09T23:21:28.028Z,9.05
2022-12-09T23:23:59.292Z,7.80
2022-12-09T23:26:30.289Z,7.13
2022-12-09T23:29:00.205Z,6.95
2022-12-09T23:31:33.493Z,7.88
2022-12-09T23:34:02.665Z,7.80
2022-12-09T23:36:35.981Z,7.15
2022-12-09T23:39:07.692Z,5.68
2022-12-09T23:41:36.194Z,6.20
2022-12-09T23:44:07.977Z,6.65
2022-12-09T23:46:35.453Z,6.18
2022-12-09T23:49:03.832Z,5.82
2022-12-09T23:51:32.937Z,5.47
2022-12-09T23:54:03.364Z,5.90
2022-12-09T23:56:34.233Z,6.53
2022-12-09T23:59:08.684Z,6.22
